createdAt,value
2023-04-25T00:03:16.635Z,97398.16
2023-04-25T00:08:18.878Z,97393.06
2023-04-25T00:13:21.407Z,97392.22
2023-04-25T00:18:23.669Z,97385.16
2023-04-25T00:23:25.768Z,97393.63
2023-04-25T00:28:27.718Z,97385.41
2023-04-25T00:33:29.891Z,97393.06
2023-04-25T00:38:31.961Z,97384.56
2023-04-25T00:43:35.072Z,97394.94
2023-04-25T00:48:36.966Z,97386.00
2023-04-25T00:53:38.948Z,97389.47
2023-04-25T00:58:42.805Z,97377.81
2023-04-25T01:03:48.141Z,97383.19
2023-04-25T01:08:50.160Z,97386.28
2023-04-25T01:13:52.777Z,97385.03
2023-04-25T01:18:56.138Z,97382.19
2023-04-25T01:23:58.312Z,97390.63
2023-04-25T01:29:01.044Z,97387.03
2023-04-25T01:34:02.991Z,97380.38
2023-04-25T01:39:05.049Z,97378.91
2023-04-25T01:44:07.006Z,97383.50
2023-04-25T01:49:10.151Z,97385.72
2023-04-25T01:54:12.598Z,97386.44
2023-04-25T01:59:14.504Z,97382.16
2023-04-25T02:04:41.083Z,97387.94
2023-04-25T02:09:43.985Z,97382.19
2023-04-25T02:14:47.601Z,97391.78
2023-04-25T02:20:01.050Z,97388.66
2023-04-25T02:25:03.452Z,97382.06
2023-04-25T02:30:07.695Z,97379.66
2023-04-25T02:35:10.328Z,97379.34
2023-04-25T02:40:12.474Z,97373.06
2023-04-25T02:45:14.433Z,97377.66
2023-04-25T02:50:16.323Z,97373.38
2023-04-25T02:55:18.424Z,97382.53
2023-04-25T03:00:21.475Z,97383.06
2023-04-25T03:05:23.426Z,97388.16
2023-04-25T03:10:25.467Z,97370.31
2023-04-25T03:15:27.723Z,97366.66
2023-04-25T03:20:30.016Z,97361.34
2023-04-25T03:25:32.540Z,97360.59
2023-04-25T03:30:34.541Z,97367.41
2023-04-25T03:35:36.952Z,97368.38
2023-04-25T03:40:39.254Z,97370.47
2023-04-25T03:45:52.146Z,97364.22
2023-04-25T03:50:57.002Z,97370.47
2023-04-25T03:55:59.557Z,97370.78
2023-04-25T04:01:03.846Z,97366.88
2023-04-25T04:06:08.300Z,97371.28
2023-04-25T04:11:16.229Z,97370.28
2023-04-25T04:16:18.184Z,97370.34
2023-04-25T04:21:20.300Z,97375.88
2023-04-25T04:26:25.375Z,97375.97
2023-04-25T04:31:33.871Z,97375.28
2023-04-25T04:36:36.109Z,97383.44
2023-04-25T04:41:38.430Z,97389.25
2023-04-25T04:47:07.508Z,97387.59
2023-04-25T04:52:28.110Z,97390.69
2023-04-25T04:57:56.527Z,97391.56
2023-04-25T05:03:28.577Z,97397.91
2023-04-25T05:09:00.130Z,97393.44
2023-04-25T05:14:20.462Z,97393.44
2023-04-25T05:19:41.107Z,97397.38
2023-04-25T05:25:09.067Z,97396.81
2023-04-25T05:30:36.899Z,97396.03
2023-04-25T05:35:46.451Z,97395.22
2023-04-25T05:40:49.452Z,97395.34
2023-04-25T05:46:08.097Z,97396.63
2023-04-25T05:51:24.890Z,97392.06
2023-04-25T05:56:45.117Z,97403.34
2023-04-25T06:01:47.815Z,97396.81
2023-04-25T06:06:49.871Z,97398.69
2023-04-25T06:11:51.661Z,97398.91
2023-04-25T06:16:54.158Z,97403.69
2023-04-25T06:21:55.994Z,97405.00
2023-04-25T06:26:58.111Z,97398.25
2023-04-25T06:32:00.676Z,97400.72
2023-04-25T06:37:02.788Z,97398.56
2023-04-25T06:42:04.911Z,97409.66
2023-04-25T06:47:16.548Z,97401.97
2023-04-25T06:52:19.189Z,97391.22
2023-04-25T06:57:22.029Z,97396.75
2023-04-25T07:02:24.560Z,97398.28
2023-04-25T07:07:28.338Z,97398.25
2023-04-25T07:12:33.013Z,97398.34
2023-04-25T07:17:35.458Z,97407.69
2023-04-25T07:22:37.426Z,97405.34
2023-04-25T07:27:40.445Z,97410.03
2023-04-25T07:38:09.240Z,97405.66
2023-04-25T07:43:13.482Z,97399.94
2023-04-25T07:48:23.780Z,97403.06
2023-04-25T07:53:28.172Z,97407.78
2023-04-25T07:58:35.163Z,97403.16
2023-04-25T08:03:40.065Z,97415.56
2023-04-25T08:08:49.504Z,97413.22
2023-04-25T08:13:54.577Z,97420.59
2023-04-25T08:18:58.077Z,97424.16
2023-04-25T08:24:00.105Z,97416.81
2023-04-25T08:29:06.715Z,97430.41
2023-04-25T08:34:11.001Z,97425.72
2023-04-25T08:39:18.559Z,97439.69
2023-04-25T08:44:37.726Z,97435.06
2023-04-25T08:49:45.784Z,97444.72
2023-04-25T08:54:50.188Z,97448.53
2023-04-25T08:59:54.200Z,97458.25
2023-04-25T09:04:58.522Z,97467.53
2023-04-25T09:10:03.005Z,97472.94
2023-04-25T09:15:12.385Z,97482.25
2023-04-25T09:20:35.333Z,97482.97
2023-04-25T09:25:40.387Z,97480.69
2023-04-25T09:30:47.178Z,97496.97
2023-04-25T09:36:12.302Z,97504.69
2023-04-25T09:41:32.114Z,97511.69
2023-04-25T09:46:39.938Z,97512.44
2023-04-25T09:52:01.336Z,97517.41
2023-04-25T09:57:19.192Z,97509.19
2023-04-25T10:02:28.935Z,97511.59
2023-04-25T10:07:39.445Z,97509.22
2023-04-25T10:12:47.052Z,97523.31
2023-04-25T10:17:51.126Z,97525.78
2023-04-25T10:22:57.671Z,97528.91
2023-04-25T10:28:02.166Z,97528.88
2023-04-25T10:33:18.659Z,97536.69
2023-04-25T10:38:20.771Z,97536.75
2023-04-25T10:43:38.957Z,97539.06
2023-04-25T10:48:48.064Z,97546.03
2023-04-25T10:53:56.308Z,97537.44
2023-04-25T10:59:16.802Z,97543.53
2023-04-25T11:04:26.551Z,97544.91
2023-04-25T11:09:29.161Z,97551.50
2023-04-25T11:14:31.062Z,97556.06
2023-04-25T11:19:33.396Z,97566.47
2023-04-25T11:24:37.443Z,97563.63
2023-04-25T11:29:39.273Z,97581.09
2023-04-25T11:34:44.647Z,97588.72
2023-04-25T11:39:49.840Z,97601.16
2023-04-25T11:44:52.915Z,97601.16
2023-04-25T11:49:55.205Z,97601.16
2023-04-25T11:54:58.180Z,97601.59
2023-04-25T12:00:27.024Z,97610.53
2023-04-25T12:05:33.786Z,97612.78
2023-04-25T12:10:39.830Z,97611.34
2023-04-25T12:15:42.090Z,97616.44
2023-04-25T12:20:44.245Z,97631.00
2023-04-25T12:25:48.252Z,97620.97
2023-04-25T12:31:08.717Z,97631.19
2023-04-25T12:36:12.733Z,97616.78
2023-04-25T12:41:14.566Z,97622.47
2023-04-25T12:46:16.477Z,97624.53
2023-04-25T12:51:18.345Z,97621.91
2023-04-25T12:56:22.328Z,97615.66
2023-04-25T13:01:27.590Z,97621.69
2023-04-25T13:06:31.120Z,97623.31
2023-04-25T13:11:32.888Z,97631.75
2023-04-25T13:16:34.829Z,97639.44
2023-04-25T13:21:36.931Z,97634.22
2023-04-25T13:26:38.952Z,97647.06
2023-04-25T13:31:40.757Z,97647.44
2023-04-25T13:36:42.665Z,97652.41
2023-04-25T13:41:44.430Z,97668.53
2023-04-25T13:46:47.954Z,97674.94
2023-04-25T13:51:49.852Z,97684.00
2023-04-25T13:56:51.749Z,97689.94
2023-04-25T14:01:53.666Z,97692.63
2023-04-25T14:06:56.295Z,97692.50
2023-04-25T14:11:58.173Z,97697.47
2023-04-25T14:17:00.075Z,97695.53
2023-04-25T14:22:01.949Z,97698.69
2023-04-25T14:27:04.449Z,97708.00
2023-04-25T14:32:06.562Z,97714.25
2023-04-25T14:37:08.375Z,97698.75
2023-04-25T14:42:10.138Z,97701.38
2023-04-25T14:47:12.063Z,97708.91
2023-04-25T14:52:13.805Z,97706.78
2023-04-25T14:57:16.385Z,97703.63
2023-04-25T15:02:18.749Z,97703.72
2023-04-25T15:07:20.728Z,97709.81
2023-04-25T15:12:22.614Z,97714.66
2023-04-25T15:17:24.427Z,97711.66
2023-04-25T15:22:26.441Z,97724.75
2023-04-25T15:27:28.399Z,97735.44
2023-04-25T15:32:30.179Z,97742.19
2023-04-25T15:37:32.289Z,97736.59
2023-04-25T15:42:34.129Z,97743.41
2023-04-25T15:47:36.973Z,97742.56
2023-04-25T15:52:39.355Z,97739.31
2023-04-25T15:57:43.858Z,97745.41
2023-04-25T16:02:47.021Z,97751.53
2023-04-25T16:07:49.404Z,97746.88
2023-04-25T16:12:51.408Z,97746.47
2023-04-25T16:17:53.258Z,97746.97
2023-04-25T16:22:55.617Z,97753.25
2023-04-25T16:27:57.441Z,97752.91
2023-04-25T16:32:59.330Z,97753.03
2023-04-25T16:38:01.223Z,97761.47
2023-04-25T16:43:03.031Z,97763.19
2023-04-25T16:48:04.925Z,97763.34
2023-04-25T16:53:06.757Z,97764.78
2023-04-25T16:58:11.293Z,97773.25
2023-04-25T17:03:13.392Z,97779.53
2023-04-25T17:08:15.287Z,97787.28
2023-04-25T17:13:17.221Z,97786.47
2023-04-25T17:18:19.048Z,97798.63
2023-04-25T17:23:21.353Z,97800.56
2023-04-25T17:28:23.237Z,97804.09
2023-04-25T17:33:27.139Z,97806.06
2023-04-25T17:38:29.070Z,97819.84
2023-04-25T17:43:31.536Z,97817.75
2023-04-25T17:48:33.343Z,97828.09
2023-04-25T17:53:35.930Z,97828.94
2023-04-25T17:58:38.224Z,97841.66
2023-04-25T18:03:40.609Z,97843.16
2023-04-25T18:08:42.526Z,97842.31
2023-04-25T18:13:44.305Z,97855.31
2023-04-25T18:18:53.284Z,97845.91
2023-04-25T18:23:55.704Z,97851.06
2023-04-25T18:28:57.479Z,97860.50
2023-04-25T18:33:59.564Z,97865.34
2023-04-25T18:39:15.111Z,97868.88
2023-04-25T18:44:23.561Z,97882.25
2023-04-25T18:49:25.391Z,97885.69
2023-04-25T18:54:27.285Z,97886.06
2023-04-25T18:59:29.232Z,97892.03
2023-04-25T19:04:31.465Z,97905.56
2023-04-25T19:09:33.571Z,97909.13
2023-04-25T19:14:36.267Z,97905.84
2023-04-25T19:19:38.403Z,97918.19
2023-04-25T19:24:40.968Z,97913.34
2023-04-25T19:29:48.121Z,97910.38
2023-04-25T19:34:50.222Z,97911.06
2023-04-25T19:39:52.041Z,97913.88
2023-04-25T19:44:53.955Z,97925.75
2023-04-25T19:49:55.767Z,97931.66
2023-04-25T19:55:02.275Z,97925.94
2023-04-25T20:00:12.072Z,97931.66
2023-04-25T20:05:18.498Z,97932.34
2023-04-25T20:10:20.496Z,97932.53
2023-04-25T20:15:22.356Z,97934.81
2023-04-25T20:20:24.203Z,97944.28
2023-04-25T20:25:26.098Z,97944.75
2023-04-25T20:30:27.953Z,97953.59
2023-04-25T20:35:31.417Z,97959.50
2023-04-25T20:40:33.210Z,97959.84
2023-04-25T20:45:36.211Z,97967.25
2023-04-25T20:50:38.619Z,97966.31
2023-04-25T20:55:41.972Z,97957.19
2023-04-25T21:00:44.142Z,97957.66
2023-04-25T21:05:47.004Z,97961.28
2023-04-25T21:10:49.541Z,97963.41
2023-04-25T21:15:53.009Z,97967.81
2023-04-25T21:20:54.834Z,97974.59
2023-04-25T21:25:57.234Z,97966.50
2023-04-25T21:30:59.469Z,97973.03
2023-04-25T21:36:01.283Z,97976.25
2023-04-25T21:41:03.378Z,97977.25
2023-04-25T21:51:09.969Z,97970.50
2023-04-25T21:56:12.502Z,97981.38
2023-04-25T22:01:15.854Z,97991.22
2023-04-25T22:06:17.733Z,97992.75
2023-04-25T22:11:19.580Z,97996.63
2023-04-25T22:16:21.399Z,98000.19
2023-04-25T22:21:24.460Z,98006.03
2023-04-25T22:26:26.257Z,98007.03
2023-04-25T22:31:29.120Z,98013.22
2023-04-25T22:36:30.954Z,98035.50
2023-04-25T22:41:32.720Z,98032.81
2023-04-25T22:46:34.502Z,98035.06
2023-04-25T22:51:37.114Z,98036.53
2023-04-25T22:56:38.909Z,98029.00
2023-04-25T23:01:40.754Z,98038.91
2023-04-25T23:06:42.795Z,98033.53
2023-04-25T23:11:44.842Z,98035.75
2023-04-25T23:16:46.955Z,98044.28
2023-04-25T23:21:48.958Z,98045.19
2023-04-25T23:26:50.823Z,98042.03
2023-04-25T23:31:52.631Z,98051.94
2023-04-25T23:36:54.396Z,98054.97
2023-04-25T23:41:56.886Z,98057.44
2023-04-25T23:46:58.650Z,98061.81
2023-04-25T23:52:00.742Z,98058.00
2023-04-25T23:57:04.522Z,98064.09
